createdAt,value
2022-09-03T00:00:28.007Z,25.09
2022-09-03T00:03:04.345Z,25.08
2022-09-03T00:05:48.536Z,25.08
2022-09-03T00:08:19.151Z,25.07
2022-09-03T00:10:53.595Z,25.08
2022-09-03T00:13:23.688Z,25.06
2022-09-03T00:15:51.714Z,25.07
2022-09-03T00:18:21.047Z,25.06
2022-09-03T00:20:54.534Z,25.04
2022-09-03T00:23:29.003Z,25.05
2022-09-03T00:26:17.526Z,25.03
2022-09-03T00:28:50.941Z,25.04
2022-09-03T00:31:27.323Z,25.04
2022-09-03T00:34:00.307Z,25.04
2022-09-03T00:36:36.182Z,25.03
2022-09-03T00:39:02.940Z,25.03
2022-09-03T00:42:14.073Z,25.02
2022-09-03T00:45:18.610Z,25.02
2022-09-03T00:48:12.703Z,25.02
2022-09-03T00:51:17.362Z,25.01
2022-09-03T00:53:56.336Z,25.00
2022-09-03T00:56:33.167Z,25.00
2022-09-03T00:59:33.738Z,24.99
2022-09-03T01:02:29.339Z,25.00
2022-09-03T01:05:02.079Z,24.98
2022-09-03T01:07:46.258Z,24.98
2022-09-03T01:10:12.802Z,24.98
2022-09-03T01:12:42.658Z,24.97
2022-09-03T01:15:15.830Z,24.97
2022-09-03T01:18:06.558Z,24.96
2022-09-03T01:20:42.326Z,24.96
2022-09-03T01:23:12.131Z,24.96
2022-09-03T01:25:54.667Z,24.96
2022-09-03T01:28:32.331Z,24.95
2022-09-03T01:31:42.539Z,24.95
2022-09-03T01:34:27.896Z,24.96
2022-09-03T01:37:27.633Z,24.94
2022-09-03T01:40:06.183Z,24.94
2022-09-03T01:43:02.278Z,24.92
2022-09-03T01:46:00.764Z,24.94
2022-09-03T01:48:54.093Z,24.93
2022-09-03T01:51:22.726Z,24.92
2022-09-03T01:59:33.117Z,24.90
2022-09-03T02:02:20.340Z,24.89
2022-09-03T02:05:35.755Z,24.89
2022-09-03T02:08:06.906Z,24.89
2022-09-03T02:10:55.463Z,24.89
2022-09-03T02:13:27.130Z,24.89
2022-09-03T02:15:54.624Z,24.88
2022-09-03T02:18:34.108Z,24.88
2022-09-03T02:21:01.008Z,24.87
2022-09-03T02:23:28.464Z,24.86
2022-09-03T02:26:00.192Z,24.84
2022-09-03T02:28:28.212Z,24.84
2022-09-03T02:30:55.186Z,24.84
2022-09-03T02:33:21.970Z,24.83
2022-09-03T02:35:48.879Z,24.82
2022-09-03T02:38:25.672Z,24.82
2022-09-03T02:40:54.469Z,24.83
2022-09-03T02:43:27.728Z,24.82
2022-09-03T02:45:56.185Z,24.83
2022-09-03T02:48:23.841Z,24.80
2022-09-03T02:50:50.606Z,24.81
2022-09-03T02:53:17.196Z,24.80
2022-09-03T02:55:43.763Z,24.78
2022-09-03T02:58:10.445Z,24.79
2022-09-03T03:00:37.291Z,24.78
2022-09-03T03:03:04.610Z,24.77
2022-09-03T03:05:42.331Z,24.77
2022-09-03T03:08:09.094Z,24.76
2022-09-03T03:10:35.706Z,24.76
2022-09-03T03:13:02.280Z,24.75
2022-09-03T03:15:28.900Z,24.75
2022-09-03T03:17:58.327Z,24.75
2022-09-03T03:20:24.936Z,24.74
2022-09-03T03:22:54.031Z,24.75
2022-09-03T03:25:20.617Z,24.73
2022-09-03T03:27:47.200Z,24.74
2022-09-03T03:30:13.859Z,24.73
2022-09-03T03:32:40.492Z,24.72
2022-09-03T03:35:07.463Z,24.73
2022-09-03T03:37:35.634Z,24.71
2022-09-03T03:40:02.969Z,24.71
2022-09-03T03:42:29.701Z,24.70
2022-09-03T03:44:56.321Z,24.71
2022-09-03T03:47:23.029Z,24.70
2022-09-03T03:49:49.621Z,24.70
2022-09-03T03:52:16.183Z,24.69
2022-09-03T03:54:42.795Z,24.70
2022-09-03T03:57:09.392Z,24.69
2022-09-03T03:59:35.990Z,24.69
2022-09-03T04:02:02.635Z,24.69
2022-09-03T04:04:29.270Z,24.68
2022-09-03T04:06:55.877Z,24.68
2022-09-03T04:09:22.443Z,24.68
2022-09-03T04:11:50.488Z,24.67
2022-09-03T04:14:18.147Z,24.66
2022-09-03T04:16:46.909Z,24.66
2022-09-03T04:19:13.721Z,24.65
2022-09-03T04:21:40.303Z,24.65
2022-09-03T04:24:07.101Z,24.65
2022-09-03T04:26:33.699Z,24.65
2022-09-03T04:29:01.474Z,24.65
2022-09-03T04:31:28.132Z,24.64
2022-09-03T04:33:55.002Z,24.64
2022-09-03T04:36:23.069Z,24.64
2022-09-03T04:38:50.842Z,24.63
2022-09-03T04:41:18.988Z,24.63
2022-09-03T04:43:46.098Z,24.63
2022-09-03T04:46:18.523Z,24.63
2022-09-03T04:48:47.926Z,24.63
2022-09-03T04:51:16.249Z,24.62
2022-09-03T04:53:45.487Z,24.63
2022-09-03T04:56:22.334Z,24.63
2022-09-03T04:58:51.019Z,24.63
2022-09-03T05:01:22.211Z,24.62
2022-09-03T05:03:48.877Z,24.61
2022-09-03T05:06:17.263Z,24.60
2022-09-03T05:08:46.419Z,24.61
2022-09-03T05:11:14.742Z,24.60
2022-09-03T05:13:41.318Z,24.60
2022-09-03T05:16:09.260Z,24.59
2022-09-03T05:18:36.099Z,24.60
2022-09-03T05:21:09.085Z,24.60
2022-09-03T05:23:37.754Z,24.61
2022-09-03T05:26:09.053Z,24.60
2022-09-03T05:28:38.964Z,24.60
2022-09-03T05:31:13.393Z,24.60
2022-09-03T05:33:42.143Z,24.61
2022-09-03T05:36:10.970Z,24.59
2022-09-03T05:38:37.688Z,24.60
2022-09-03T05:41:06.020Z,24.60
2022-09-03T05:43:32.762Z,24.60
2022-09-03T05:46:03.087Z,24.61
2022-09-03T05:48:30.272Z,24.62
2022-09-03T05:51:06.856Z,24.61
2022-09-03T05:53:35.223Z,24.62
2022-09-03T05:56:03.150Z,24.62
2022-09-03T05:58:36.373Z,24.62
2022-09-03T06:01:20.030Z,24.62
2022-09-03T06:03:48.178Z,24.63
2022-09-03T06:06:15.583Z,24.62
2022-09-03T06:08:42.432Z,24.61
2022-09-03T06:11:09.417Z,24.62
2022-09-03T06:13:36.005Z,24.62
2022-09-03T06:16:05.178Z,24.62
2022-09-03T06:18:31.894Z,24.62
2022-09-03T06:20:59.942Z,24.64
2022-09-03T06:23:26.821Z,24.64
2022-09-03T06:26:20.135Z,24.64
2022-09-03T06:28:48.472Z,24.65
2022-09-03T06:31:19.320Z,24.65
2022-09-03T06:33:47.213Z,24.65
2022-09-03T06:36:15.382Z,24.65
2022-09-03T06:38:42.212Z,24.65
2022-09-03T06:41:25.041Z,24.64
2022-09-03T06:44:02.303Z,24.66
2022-09-03T06:46:29.306Z,24.66
2022-09-03T06:48:55.883Z,24.65
2022-09-03T06:51:23.829Z,24.65
2022-09-03T06:53:51.895Z,24.66
2022-09-03T06:56:26.362Z,24.67
2022-09-03T06:58:54.568Z,24.67
2022-09-03T07:01:28.399Z,24.67
2022-09-03T07:03:58.879Z,24.68
2022-09-03T07:06:28.272Z,24.68
2022-09-03T07:08:55.611Z,24.68
2022-09-03T07:11:24.090Z,24.68
2022-09-03T07:13:51.704Z,24.69
2022-09-03T07:16:29.128Z,24.69
2022-09-03T07:18:56.743Z,24.69
2022-09-03T07:21:25.027Z,24.67
2022-09-03T07:23:52.494Z,24.67
2022-09-03T07:26:24.076Z,24.65
2022-09-03T07:28:50.793Z,24.67
2022-09-03T07:31:29.939Z,24.67
2022-09-03T07:34:01.135Z,24.67
2022-09-03T07:36:29.087Z,24.66
2022-09-03T07:39:01.968Z,24.67
2022-09-03T07:41:29.210Z,24.68
2022-09-03T07:43:57.060Z,24.67
2022-09-03T07:46:25.269Z,24.68
2022-09-03T07:48:56.213Z,24.69
2022-09-03T07:51:26.974Z,24.70
2022-09-03T07:53:55.036Z,24.68
2022-09-03T07:56:21.914Z,24.70
2022-09-03T07:58:48.525Z,24.70
2022-09-03T08:01:18.426Z,24.72
2022-09-03T08:03:46.365Z,24.71
2022-09-03T08:06:13.351Z,24.72
2022-09-03T08:08:40.365Z,24.73
2022-09-03T08:11:11.065Z,24.74
2022-09-03T08:13:40.856Z,24.74
2022-09-03T08:16:08.365Z,24.76
2022-09-03T08:18:37.875Z,24.76
2022-09-03T08:21:07.132Z,24.77
2022-09-03T08:23:38.117Z,24.78
2022-09-03T08:26:04.959Z,24.78
2022-09-03T08:28:33.008Z,24.80
2022-09-03T08:31:04.453Z,24.81
2022-09-03T08:33:37.172Z,24.82
2022-09-03T08:36:05.808Z,24.82
2022-09-03T08:38:33.312Z,24.84
2022-09-03T08:41:04.995Z,24.84
2022-09-03T08:43:31.581Z,24.86
2022-09-03T08:45:59.966Z,24.86
2022-09-03T08:48:26.819Z,24.86
2022-09-03T08:50:59.150Z,24.88
2022-09-03T08:53:30.497Z,24.88
2022-09-03T08:56:02.962Z,24.91
2022-09-03T08:58:31.386Z,24.90
2022-09-03T09:06:42.035Z,24.94
2022-09-03T09:09:23.289Z,24.95
2022-09-03T09:12:23.901Z,24.96
2022-09-03T09:15:05.648Z,24.97
2022-09-03T09:18:03.995Z,24.99
2022-09-03T09:21:18.965Z,24.99
2022-09-03T09:23:48.808Z,25.01
2022-09-03T09:26:16.682Z,25.01
2022-09-03T09:28:45.535Z,25.02
2022-09-03T09:31:15.515Z,25.04
2022-09-03T09:33:42.664Z,25.04
2022-09-03T09:36:11.802Z,25.05
2022-09-03T09:38:39.048Z,25.07
2022-09-03T09:41:13.105Z,25.08
2022-09-03T09:43:40.440Z,25.08
2022-09-03T09:46:21.564Z,25.09
2022-09-03T09:48:53.199Z,25.10
2022-09-03T09:51:21.195Z,25.12
2022-09-03T09:53:47.896Z,25.12
2022-09-03T09:56:22.526Z,25.13
2022-09-03T09:58:49.286Z,25.14
2022-09-03T10:01:23.471Z,25.15
2022-09-03T10:03:55.530Z,25.16
2022-09-03T10:06:48.498Z,25.18
2022-09-03T10:09:19.618Z,25.19
2022-09-03T10:11:50.825Z,25.19
2022-09-03T10:14:25.376Z,25.20
2022-09-03T10:16:57.403Z,25.21
2022-09-03T10:19:30.768Z,25.21
2022-09-03T10:22:09.544Z,25.22
2022-09-03T10:24:40.213Z,25.23
2022-09-03T10:27:11.300Z,25.24
2022-09-03T10:29:39.316Z,25.25
2022-09-03T10:32:13.417Z,25.25
2022-09-03T10:34:58.777Z,25.27
2022-09-03T10:37:48.083Z,25.28
2022-09-03T10:40:41.019Z,25.27
2022-09-03T10:43:13.974Z,25.29
2022-09-03T10:46:00.017Z,25.28
2022-09-03T10:49:06.226Z,25.29
2022-09-03T10:51:36.718Z,25.30
2022-09-03T10:54:40.412Z,25.30
2022-09-03T10:57:21.755Z,25.31
2022-09-03T11:00:12.979Z,25.31
2022-09-03T11:03:02.514Z,25.32
2022-09-03T11:05:37.172Z,25.32
2022-09-03T11:08:11.878Z,25.31
2022-09-03T11:10:41.959Z,25.32
2022-09-03T11:13:35.400Z,25.32
2022-09-03T11:16:32.378Z,25.31
2022-09-03T11:19:07.352Z,25.32
2022-09-03T11:21:35.166Z,25.33
2022-09-03T11:24:12.238Z,25.33
2022-09-03T11:26:39.639Z,25.33
2022-09-03T11:29:13.449Z,25.33
2022-09-03T11:31:49.840Z,25.32
2022-09-03T11:34:33.944Z,25.33
2022-09-03T11:37:17.332Z,25.32
2022-09-03T11:39:44.217Z,25.33
2022-09-03T11:42:12.473Z,25.33
2022-09-03T11:44:51.417Z,25.33
2022-09-03T11:47:37.392Z,25.33
2022-09-03T11:50:20.687Z,25.32
2022-09-03T11:52:53.226Z,25.33
2022-09-03T11:55:27.340Z,25.33
2022-09-03T11:57:55.728Z,25.32
2022-09-03T12:00:24.945Z,25.32
2022-09-03T12:02:58.989Z,25.33
2022-09-03T12:05:46.327Z,25.32
2022-09-03T12:08:35.705Z,25.32
2022-09-03T12:11:09.632Z,25.32
2022-09-03T12:13:54.425Z,25.33
2022-09-03T12:16:45.440Z,25.32
2022-09-03T12:19:41.278Z,25.32
2022-09-03T12:22:14.989Z,25.33
2022-09-03T12:24:45.082Z,25.32
2022-09-03T12:27:27.153Z,25.32
2022-09-03T12:29:58.110Z,25.31
2022-09-03T12:32:24.907Z,25.32
2022-09-03T12:34:51.472Z,25.31
2022-09-03T12:40:26.435Z,25.31
2022-09-03T12:42:53.854Z,25.31
2022-09-03T12:45:25.791Z,25.32
2022-09-03T12:47:53.375Z,25.30
2022-09-03T12:50:24.192Z,25.31
2022-09-03T12:52:56.040Z,25.31
2022-09-03T12:55:31.814Z,25.31
2022-09-03T12:58:08.341Z,25.31
2022-09-03T13:00:38.527Z,25.31
2022-09-03T13:03:05.005Z,25.31
2022-09-03T13:05:44.602Z,25.30
2022-09-03T13:08:19.064Z,25.30
2022-09-03T13:10:45.989Z,25.31
2022-09-03T13:13:26.598Z,25.30
2022-09-03T13:16:24.858Z,25.30
2022-09-03T13:19:13.424Z,25.29
2022-09-03T13:21:58.643Z,25.29
2022-09-03T13:24:54.447Z,25.31
2022-09-03T13:27:27.543Z,25.29
2022-09-03T13:30:05.577Z,25.29
2022-09-03T13:33:20.119Z,25.28
2022-09-03T13:35:54.913Z,25.30
2022-09-03T13:38:21.384Z,25.29
2022-09-03T13:40:56.276Z,25.28
2022-09-03T13:43:47.868Z,25.29
2022-09-03T13:46:40.390Z,25.29
2022-09-03T13:49:41.079Z,25.29
2022-09-03T13:52:11.694Z,25.29
2022-09-03T13:54:49.115Z,25.29
2022-09-03T13:57:25.109Z,25.29
2022-09-03T13:59:52.927Z,25.29
2022-09-03T14:03:05.308Z,25.29
2022-09-03T14:05:45.889Z,25.29
2022-09-03T14:08:25.081Z,25.30
2022-09-03T14:11:16.654Z,25.28
2022-09-03T14:14:06.144Z,25.29
2022-09-03T14:16:35.762Z,25.29
2022-09-03T14:19:07.304Z,25.29
2022-09-03T14:21:39.103Z,25.29
2022-09-03T14:24:19.698Z,25.28
2022-09-03T14:26:52.014Z,25.28
2022-09-03T14:29:18.581Z,25.28
2022-09-03T14:31:56.101Z,25.29
2022-09-03T14:34:45.196Z,25.28
2022-09-03T14:37:38.251Z,25.27
2022-09-03T14:40:18.866Z,25.28
2022-09-03T14:43:11.589Z,25.28
2022-09-03T14:46:02.386Z,25.27
2022-09-03T14:48:57.194Z,25.27
2022-09-03T14:51:54.461Z,25.27
2022-09-03T14:54:23.932Z,25.28
2022-09-03T14:57:12.878Z,25.28
2022-09-03T14:59:48.830Z,25.27
2022-09-03T15:02:24.443Z,25.27
2022-09-03T15:04:57.394Z,25.27
2022-09-03T15:07:45.230Z,25.27
2022-09-03T15:10:37.709Z,25.27
2022-09-03T15:13:17.158Z,25.25
2022-09-03T15:15:43.621Z,25.26
2022-09-03T15:18:31.185Z,25.26
2022-09-03T15:21:14.161Z,25.25
2022-09-03T15:24:00.175Z,25.26
2022-09-03T15:26:35.780Z,25.25
2022-09-03T15:29:14.011Z,25.27
2022-09-03T15:32:18.795Z,25.25
2022-09-03T15:35:05.534Z,25.25
2022-09-03T15:37:45.875Z,25.25
2022-09-03T15:40:18.570Z,25.25
2022-09-03T15:42:46.150Z,25.24
2022-09-03T15:45:38.062Z,25.25
2022-09-03T15:48:41.740Z,25.24
2022-09-03T15:51:21.080Z,25.24
2022-09-03T15:54:09.538Z,25.24
2022-09-03T15:56:52.644Z,25.24
2022-09-03T15:59:25.629Z,25.25
2022-09-03T16:02:20.945Z,25.24
2022-09-03T16:04:53.784Z,25.24
2022-09-03T16:07:34.358Z,25.24
2022-09-03T16:10:30.782Z,25.23
2022-09-03T16:13:04.632Z,25.24
2022-09-03T16:15:34.922Z,25.25
2022-09-03T16:18:08.696Z,25.23
2022-09-03T16:21:26.390Z,25.24
2022-09-03T16:23:56.490Z,25.23
2022-09-03T16:26:41.233Z,25.23
2022-09-03T16:29:09.715Z,25.22
2022-09-03T16:31:47.685Z,25.23
2022-09-03T16:34:37.124Z,25.23
2022-09-03T16:37:45.935Z,25.24
2022-09-03T16:40:24.483Z,25.23
2022-09-03T16:43:39.259Z,25.22
2022-09-03T16:46:24.410Z,25.22
2022-09-03T16:48:59.964Z,25.22
2022-09-03T16:51:32.356Z,25.22
2022-09-03T16:54:05.496Z,25.22
2022-09-03T16:56:38.767Z,25.22
2022-09-03T16:59:28.180Z,25.22
2022-09-03T17:02:41.343Z,25.21
2022-09-03T17:05:40.531Z,25.22
2022-09-03T17:08:22.242Z,25.22
2022-09-03T17:11:08.963Z,25.22
2022-09-03T17:13:54.485Z,25.21
2022-09-03T17:16:21.744Z,25.22
2022-09-03T17:19:25.902Z,25.21
2022-09-03T17:22:29.992Z,25.22
2022-09-03T17:25:07.847Z,25.21
2022-09-03T17:28:11.976Z,25.22
2022-09-03T17:30:59.135Z,25.21
2022-09-03T17:33:35.841Z,25.21
2022-09-03T17:36:31.412Z,25.21
2022-09-03T17:39:04.113Z,25.21
2022-09-03T17:41:55.817Z,25.21
2022-09-03T17:44:38.095Z,25.21
2022-09-03T17:47:19.901Z,25.21
2022-09-03T17:49:57.415Z,25.21
2022-09-03T17:52:39.149Z,25.21
2022-09-03T17:55:13.445Z,25.21
2022-09-03T17:57:48.405Z,25.21
2022-09-03T18:00:26.383Z,25.20
2022-09-03T18:02:56.708Z,25.20
2022-09-03T18:05:28.740Z,25.20
2022-09-03T18:08:14.041Z,25.20
2022-09-03T18:11:17.625Z,25.20
2022-09-03T18:14:13.783Z,25.20
2022-09-03T18:17:20.256Z,25.21
2022-09-03T18:20:24.343Z,25.20
2022-09-03T18:23:20.345Z,25.20
2022-09-03T18:26:08.794Z,25.20
2022-09-03T18:29:01.172Z,25.19
2022-09-03T18:31:46.208Z,25.20
2022-09-03T18:34:31.492Z,25.20
2022-09-03T18:37:17.618Z,25.20
2022-09-03T18:40:06.015Z,25.20
2022-09-03T18:43:17.426Z,25.21
2022-09-03T18:46:46.237Z,25.19
2022-09-03T18:49:19.543Z,25.20
2022-09-03T18:52:17.507Z,25.20
2022-09-03T18:55:29.362Z,25.19
2022-09-03T18:58:20.556Z,25.20
2022-09-03T19:01:14.503Z,25.20
2022-09-03T19:04:08.286Z,25.18
2022-09-03T19:06:53.784Z,25.20
2022-09-03T19:09:54.338Z,25.19
2022-09-03T19:13:03.557Z,25.20
2022-09-03T19:15:51.244Z,25.19
2022-09-03T19:19:13.841Z,25.20
2022-09-03T19:22:05.675Z,25.20
2022-09-03T19:24:50.982Z,25.20
2022-09-03T19:27:57.285Z,25.19
2022-09-03T19:31:02.869Z,25.19
2022-09-03T19:33:48.071Z,25.19
2022-09-03T19:36:52.361Z,25.19
2022-09-03T19:39:43.606Z,25.19
2022-09-03T19:43:17.148Z,25.20
2022-09-03T19:46:14.747Z,25.19
2022-09-03T19:49:15.169Z,25.19
2022-09-03T19:52:22.144Z,25.18
2022-09-03T19:55:08.593Z,25.19
2022-09-03T19:57:53.587Z,25.19
2022-09-03T20:00:41.541Z,25.19
2022-09-03T20:03:26.401Z,25.19
2022-09-03T20:06:11.764Z,25.19
2022-09-03T20:08:57.026Z,25.19
2022-09-03T20:11:23.787Z,25.19
2022-09-03T20:14:09.051Z,25.19
2022-09-03T20:16:54.347Z,25.20
2022-09-03T20:19:34.111Z,25.20
2022-09-03T20:22:23.080Z,25.19
2022-09-03T20:25:07.441Z,25.19
2022-09-03T20:27:52.800Z,25.19
2022-09-03T20:30:23.738Z,25.19
2022-09-03T20:33:15.730Z,25.20
2022-09-03T20:36:14.448Z,25.20
2022-09-03T20:38:56.195Z,25.19
2022-09-03T20:41:35.651Z,25.20
2022-09-03T20:44:24.102Z,25.20
2022-09-03T20:47:15.040Z,25.19
2022-09-03T20:50:04.242Z,25.20
2022-09-03T20:53:04.619Z,25.20
2022-09-03T20:55:50.987Z,25.20
2022-09-03T20:58:38.039Z,25.20
2022-09-03T21:01:09.077Z,25.21
2022-09-03T21:03:51.376Z,25.21
2022-09-03T21:06:38.928Z,25.21
2022-09-03T21:09:11.581Z,25.21
2022-09-03T21:11:49.462Z,25.22
2022-09-03T21:14:35.415Z,25.21
2022-09-03T21:17:18.927Z,25.22
2022-09-03T21:19:50.029Z,25.22
2022-09-03T21:22:52.687Z,25.21
2022-09-03T21:25:26.319Z,25.22
2022-09-03T21:28:15.696Z,25.23
2022-09-03T21:30:46.410Z,25.22
2022-09-03T21:33:20.844Z,25.22
2022-09-03T21:35:51.512Z,25.22
2022-09-03T21:38:20.897Z,25.23
2022-09-03T21:40:55.502Z,25.23
2022-09-03T21:43:24.941Z,25.23
2022-09-03T21:46:07.666Z,25.24
2022-09-03T21:48:47.083Z,25.24
2022-09-03T21:51:31.516Z,25.24
2022-09-03T21:54:10.477Z,25.23
2022-09-03T21:57:13.998Z,25.25
2022-09-03T22:00:17.792Z,25.25
2022-09-03T22:02:46.208Z,25.25
2022-09-03T22:05:14.129Z,25.27
2022-09-03T22:07:43.710Z,25.27
2022-09-03T22:10:34.283Z,25.25
2022-09-03T22:13:25.246Z,25.25
2022-09-03T22:15:51.970Z,25.26
2022-09-03T22:18:29.768Z,25.26
2022-09-03T22:21:01.180Z,25.27
2022-09-03T22:23:51.303Z,25.28
2022-09-03T22:26:31.293Z,25.28
2022-09-03T22:29:23.862Z,25.28
2022-09-03T22:32:11.083Z,25.27
2022-09-03T22:34:40.451Z,25.27
2022-09-03T22:37:23.686Z,25.27
2022-09-03T22:39:50.384Z,25.29
2022-09-03T22:42:35.833Z,25.28
2022-09-03T22:45:08.269Z,25.28
2022-09-03T22:47:55.834Z,25.29
2022-09-03T22:50:23.835Z,25.28
2022-09-03T22:53:31.497Z,25.27
2022-09-03T22:56:13.411Z,25.27
2022-09-03T22:58:47.459Z,25.28
2022-09-03T23:01:37.902Z,25.27
2022-09-03T23:04:35.631Z,25.27
2022-09-03T23:07:08.631Z,25.28
2022-09-03T23:09:36.638Z,25.27
2022-09-03T23:12:20.181Z,25.28
2022-09-03T23:14:54.378Z,25.28
2022-09-03T23:22:39.042Z,25.28
2022-09-03T23:25:20.843Z,25.28
2022-09-03T23:28:01.541Z,25.28
2022-09-03T23:30:28.229Z,25.28
2022-09-03T23:32:59.076Z,25.28
2022-09-03T23:35:27.798Z,25.28
2022-09-03T23:38:13.128Z,25.28
2022-09-03T23:40:50.380Z,25.29
2022-09-03T23:43:38.452Z,25.28
2022-09-03T23:46:14.383Z,25.28
2022-09-03T23:48:54.287Z,25.28
2022-09-03T23:51:56.220Z,25.27
2022-09-03T23:54:47.257Z,25.28
2022-09-03T23:57:26.513Z,25.27
